Temp: 13.6°C   Hum: 83%
  Wind: 2.9mph   Dir: WNW (282°)
  Rain: 0.0mm Rate: 0.0mm/hr
  Pressure: 1007.6mb

Historic data

Bath Spa Weather Station Historical Data
Daily Summary for January 22, 2022 Units:  Metric    English   Both
Daily Weekly Monthly Yearly Custom
  High: Low: Average:
Temperature: 5.6 °C -0.9 °C 3.4 °C
Dew Point: 2.9 °C -1.9 °C 1.6 °C
Humidity: 94% 82% 88%
Wind Speed: 7.9km/h 0km/h 1.1km/h
Wind Gust: 14.5km/h - -
Wind- - NW
Pressure: 1039.8 hPa 1038.1 hPa -
Precipitation: 0 mm    
Historical Graphs
 
 
Tabular Data for January 22, 2022
Time Temperature Dew Point Pressure Wind Wind Speed Wind Gust Humidity Rainfall Rate (Hourly) solar
00:09 3.5 °C 2 °C 1039.8 hPa Calm     90% 0 mm 0 W/m2
00:14 3.5 °C 2.1 °C 1039.8 hPa Calm     90% 0 mm 0 W/m2
00:19 3.5 °C 2 °C 1039.8 hPa Calm     90% 0 mm 0 W/m2
00:24 3.4 °C 1.9 °C 1039.8 hPa Calm     90% 0 mm 0 W/m2
00:29 3.5 °C 2 °C 1039.8 hPa Calm     90% 0 mm 0 W/m2
00:34 3.5 °C 2 °C 1039.5 hPa Calm     90% 0 mm 0 W/m2
00:39 3.5 °C 2 °C 1039.5 hPa Calm     90% 0 mm 0 W/m2
00:44 3.4 °C 1.9 °C 1039.5 hPa Calm     90% 0 mm 0 W/m2
00:49 3.5 °C 2 °C 1039.5 hPa Calm     90% 0 mm 0 W/m2
00:54 3.5 °C 2 °C 1039.5 hPa Calm     90% 0 mm 0 W/m2
00:59 3.5 °C 2 °C 1039.5 hPa Calm     90% 0 mm 0 W/m2
01:04 3.5 °C 2 °C 1039.5 hPa Calm     90% 0 mm 0 W/m2
01:09 3.4 °C 1.9 °C 1039.5 hPa Calm   1.6 km/h 90% 0 mm 0 W/m2
01:14 3.4 °C 1.9 °C 1039.5 hPa Calm   1.6 km/h 90% 0 mm 0 W/m2
01:19 3.4 °C 1.9 °C 1039.5 hPa Calm     90% 0 mm 0 W/m2
01:24 3.4 °C 1.9 °C 1039.5 hPa Calm     90% 0 mm 0 W/m2
01:29 3.4 °C 1.9 °C 1039.5 hPa Calm     90% 0 mm 0 W/m2
01:34 3.4 °C 1.9 °C 1039.2 hPa Calm     90% 0 mm 0 W/m2
01:39 3.3 °C 1.8 °C 1039.2 hPa Calm     90% 0 mm 0 W/m2
01:44 3.3 °C 1.9 °C 1039.2 hPa Calm     90.8% 0 mm 0 W/m2
01:49 3.3 °C 1.9 °C 1039.2 hPa Calm     90.8% 0 mm 0 W/m2
01:54 3.3 °C 2 °C 1039.2 hPa Calm     91% 0 mm 0 W/m2
01:59 3.3 °C 2 °C 1039.2 hPa Calm     91% 0 mm 0 W/m2
02:04 3.3 °C 2 °C 1039.2 hPa Calm     90.8% 0 mm 0 W/m2
02:09 3.3 °C 2 °C 1039.2 hPa Calm     91% 0 mm 0 W/m2
02:14 3.3 °C 1.9 °C 1039.2 hPa Calm     90.8% 0 mm 0 W/m2
02:19 3.3 °C 1.8 °C 1039.2 hPa Calm     90.2% 0 mm 0 W/m2
02:24 3.3 °C 1.9 °C 1039.2 hPa Calm   1.6 km/h 90.8% 0 mm 0 W/m2
02:29 3.3 °C 1.9 °C 1039.2 hPa Calm     91% 0 mm 0 W/m2
02:34 3.3 °C 2 °C 1039.5 hPa Calm   1.6 km/h 91% 0 mm 0 W/m2
02:39 3.3 °C 2 °C 1039.2 hPa Calm     91% 0 mm 0 W/m2
02:44 3.3 °C 2 °C 1039.2 hPa Calm     91% 0 mm 0 W/m2
02:49 3.3 °C 2 °C 1039.2 hPa Calm     91% 0 mm 0 W/m2
02:54 3.3 °C 2 °C 1039.2 hPa Calm     91% 0 mm 0 W/m2
02:59 3.3 °C 2 °C 1039.2 hPa Calm     91% 0 mm 0 W/m2
03:04 3.3 °C 2 °C 1038.8 hPa NNW 1.6 km/h 4.8 km/h 91% 0 mm 0 W/m2
03:09 3.2 °C 1.9 °C 1038.8 hPa NNW 0.3 km/h 3.2 km/h 91% 0 mm 0 W/m2
03:14 3.2 °C 1.9 °C 1038.8 hPa NNW 1.8 km/h 4.8 km/h 91% 0 mm 0 W/m2
03:19 3.2 °C 1.9 °C 1038.8 hPa NNW 0.3 km/h 4.8 km/h 91% 0 mm 0 W/m2
03:24 3.2 °C 1.9 °C 1038.8 hPa Calm     91% 0 mm 0 W/m2
03:29 3.2 °C 1.9 °C 1038.8 hPa Calm     91% 0 mm 0 W/m2
03:34 3.1 °C 1.8 °C 1038.8 hPa Calm     91% 0 mm 0 W/m2
03:39 3.1 °C 1.8 °C 1038.8 hPa Calm     91% 0 mm 0 W/m2
03:44 3.1 °C 1.8 °C 1038.8 hPa Calm     91% 0 mm 0 W/m2
03:49 3.1 °C 1.8 °C 1038.8 hPa Calm     91% 0 mm 0 W/m2
03:54 3.1 °C 1.8 °C 1038.8 hPa Calm     91% 0 mm 0 W/m2
03:59 3.1 °C 1.7 °C 1038.8 hPa Calm     91% 0 mm 0 W/m2
04:04 3 °C 1.7 °C 1038.8 hPa Calm     91% 0 mm 0 W/m2
04:09 3 °C 1.7 °C 1038.8 hPa Calm     91% 0 mm 0 W/m2
04:14 3 °C 1.7 °C 1038.8 hPa Calm     91% 0 mm 0 W/m2
04:19 3 °C 1.7 °C 1038.8 hPa Calm     91% 0 mm 0 W/m2
04:24 2.9 °C 1.6 °C 1038.8 hPa Calm     91% 0 mm 0 W/m2
04:29 2.9 °C 1.6 °C 1038.8 hPa Calm     91% 0 mm 0 W/m2
04:34 2.9 °C 1.6 °C 1038.8 hPa NNW 0.3 km/h 3.2 km/h 91% 0 mm 0 W/m2
04:39 2.8 °C 1.5 °C 1038.8 hPa Calm   3.2 km/h 91% 0 mm 0 W/m2
04:44 2.6 °C 1.3 °C 1038.8 hPa Calm     91% 0 mm 0 W/m2
04:49 2.3 °C 1.1 °C 1038.8 hPa NNW 1.1 km/h 3.2 km/h 91% 0 mm 0 W/m2
04:54 2.2 °C 0.9 °C 1038.8 hPa NNW 1.8 km/h 3.2 km/h 91% 0 mm 0 W/m2
04:59 2 °C 0.7 °C 1038.8 hPa NNW 1.4 km/h 3.2 km/h 91% 0 mm 0 W/m2
05:04 1.8 °C 0.5 °C 1038.5 hPa NNW 1.1 km/h 3.2 km/h 91% 0 mm 0 W/m2
05:09 1.7 °C 0.4 °C 1038.5 hPa NNW 1.4 km/h 3.2 km/h 91% 0 mm 0 W/m2
05:14 1.5 °C 0.2 °C 1038.5 hPa NNW 1.3 km/h 3.2 km/h 91% 0 mm 0 W/m2
05:19 1.3 °C -0.1 °C 1038.5 hPa Calm   1.6 km/h 91% 0 mm 0 W/m2
05:24 1.1 °C -0.2 °C 1038.5 hPa NNW 1.4 km/h 3.2 km/h 91% 0 mm 0 W/m2
05:29 1.1 °C -0.2 °C 1038.5 hPa NNW 0.3 km/h 3.2 km/h 91% 0 mm 0 W/m2
05:34 0.9 °C -0.3 °C 1038.5 hPa Calm   1.6 km/h 91% 0 mm 0 W/m2
05:39 0.8 °C -0.5 °C 1038.5 hPa Calm     91% 0 mm 0 W/m2
05:44 0.7 °C -0.6 °C 1038.8 hPa Calm   1.6 km/h 91% 0 mm 0 W/m2
05:49 0.7 °C -0.6 °C 1038.8 hPa NNW 2.4 km/h 4.8 km/h 91.5% 0 mm 0 W/m2
05:54 0.7 °C -0.5 °C 1038.8 hPa NNW 1.9 km/h 4.8 km/h 92% 0 mm 0 W/m2
05:59 0.7 °C -0.5 °C 1038.8 hPa Calm   1.6 km/h 92% 0 mm 0 W/m2
06:04 0.6 °C -0.5 °C 1038.8 hPa Calm   1.6 km/h 92% 0 mm 0 W/m2
06:09 0.4 °C -0.7 °C 1038.8 hPa Calm     92% 0 mm 0 W/m2
06:14 0.4 °C -0.7 °C 1038.8 hPa Calm     92% 0 mm 0 W/m2
06:19 0.3 °C -0.8 °C 1038.8 hPa Calm     92% 0 mm 0 W/m2
06:24 0.3 °C -0.8 °C 1039.2 hPa Calm     92% 0 mm 0 W/m2
06:29 0.2 °C -0.9 °C 1039.2 hPa Calm   1.6 km/h 92% 0 mm 0 W/m2
06:34 0.2 °C -0.9 °C 1039.2 hPa Calm   1.6 km/h 92% 0 mm 0 W/m2
06:39 0.1 °C -1 °C 1039.2 hPa Calm     92% 0 mm 0 W/m2
06:44 0 °C -1.1 °C 1039.2 hPa Calm   1.6 km/h 92% 0 mm 0 W/m2
06:49 -0.1 °C -1.2 °C 1039.2 hPa Calm   1.6 km/h 92% 0 mm 0 W/m2
06:54 -0.1 °C -1.2 °C 1039.2 hPa Calm     92% 0 mm 0 W/m2
06:59 -0.2 °C -1.3 °C 1039.2 hPa Calm     92% 0 mm 0 W/m2
07:04 -0.2 °C -1.3 °C 1039.5 hPa NNW 0.3 km/h 3.2 km/h 92% 0 mm 0 W/m2
07:09 -0.4 °C -1.5 °C 1039.2 hPa NNW 1.4 km/h 3.2 km/h 92% 0 mm 0 W/m2
07:14 -0.4 °C -1.5 °C 1039.5 hPa NNW 0.3 km/h 3.2 km/h 92% 0 mm 0 W/m2
07:19 -0.6 °C -1.7 °C 1039.5 hPa Calm     92% 0 mm 0 W/m2
07:24 -0.6 °C -1.7 °C 1039.5 hPa Calm     92% 0 mm 0 W/m2
07:29 -0.6 °C -1.7 °C 1039.5 hPa Calm     92% 0 mm 0 W/m2
07:34 -0.7 °C -1.8 °C 1039.5 hPa Calm     92% 0 mm 0 W/m2
07:39 -0.7 °C -1.8 °C 1039.5 hPa Calm     92% 0 mm 0 W/m2
07:44 -0.8 °C -1.8 °C 1039.5 hPa Calm     92% 0 mm 0 W/m2
07:49 -0.8 °C -1.9 °C 1039.5 hPa Calm   1.6 km/h 92% 0 mm 0 W/m2
07:54 -0.8 °C -1.9 °C 1039.5 hPa NNW 0.3 km/h 1.6 km/h 92.2% 0 mm 0 W/m2
07:59 -0.8 °C -1.9 °C 1039.5 hPa NNW 0.3 km/h 1.6 km/h 92.6% 0 mm 0 W/m2
08:04 -0.9 °C -1.9 °C 1039.5 hPa Calm   1.6 km/h 93% 0 mm 5 W/m2
08:07 -0.9 °C -1.9 °C 1039.5 hPa Calm     93% 0 mm 5 W/m2
08:14 -0.9 °C -1.9 °C 1039.8 hPa Calm     93% 0 mm 9 W/m2
08:19 -0.9 °C -1.9 °C 1039.8 hPa Calm     93% 0 mm 11 W/m2
08:24 -0.8 °C -1.8 °C 1039.5 hPa Calm     93% 0 mm 12 W/m2
08:29 -0.8 °C -1.8 °C 1039.5 hPa Calm     93% 0 mm 16 W/m2
08:34 -0.8 °C -1.8 °C 1039.5 hPa Calm     93% 0 mm 19 W/m2
08:39 -0.8 °C -1.8 °C 1039.5 hPa Calm   1.6 km/h 93% 0 mm 23 W/m2
08:44 -0.7 °C -1.7 °C 1039.5 hPa Calm     93% 0 mm 25 W/m2
08:49 -0.7 °C -1.7 °C 1039.8 hPa Calm     93% 0 mm 28 W/m2
08:54 -0.2 °C -1.2 °C 1039.5 hPa Calm     93% 0 mm 30 W/m2
08:59 0.8 °C -0.2 °C 1039.5 hPa Calm     93.4% 0 mm 33 W/m2
09:04 0.1 °C -0.9 °C 1039.5 hPa Calm     93% 0 mm 35 W/m2
09:09 0.1 °C -0.9 °C 1039.8 hPa NNW 0.3 km/h 1.6 km/h 93% 0 mm 35 W/m2
09:14 -0.1 °C -1.1 °C 1039.5 hPa Calm   1.6 km/h 93% 0 mm 37 W/m2
09:19 -0.1 °C -1.1 °C 1039.8 hPa Calm     93% 0 mm 39 W/m2
09:24 0.4 °C -0.6 °C 1039.8 hPa Calm     93% 0 mm 40 W/m2
09:29 0.9 °C 0.1 °C 1039.8 hPa Calm     94% 0 mm 44 W/m2
09:34 0.7 °C -0.3 °C 1039.8 hPa Calm     93.6% 0 mm 49 W/m2
09:39 0.6 °C -0.4 °C 1039.8 hPa Calm     93% 0 mm 56 W/m2
09:44 0.8 °C -0.2 °C 1039.8 hPa NNW 0.3 km/h 1.6 km/h 93% 0 mm 63 W/m2
09:49 1.1 °C 0.1 °C 1039.5 hPa Calm     93% 0 mm 70 W/m2
09:54 1.2 °C 0.2 °C 1039.8 hPa Calm     93% 0 mm 79 W/m2
09:59 1.4 °C 0.4 °C 1039.8 hPa Calm     93% 0 mm 86 W/m2
10:04 1.8 °C 0.8 °C 1039.8 hPa Calm     93% 0 mm 95 W/m2
10:09 1.8 °C 0.8 °C 1039.8 hPa Calm     93% 0 mm 102 W/m2
10:14 2.1 °C 0.9 °C 1039.8 hPa Calm     92.4% 0 mm 111 W/m2
10:19 2.3 °C 1.1 °C 1039.5 hPa Calm     92% 0 mm 125 W/m2
10:24 2.7 °C 1.5 °C 1039.5 hPa Calm     92% 0 mm 135 W/m2
10:29 3.3 °C 2 °C 1039.5 hPa Calm     91.6% 0 mm 146 W/m2
10:34 3.3 °C 1.9 °C 1039.5 hPa NNW 1.3 km/h 4.8 km/h 90.4% 0 mm 153 W/m2
10:39 3.3 °C 1.8 °C 1039.8 hPa NNW 0.6 km/h 3.2 km/h 89.6% 0 mm 160 W/m2
10:44 3.3 °C 1.7 °C 1039.8 hPa NNW 1 km/h 4.8 km/h 89% 0 mm 163 W/m2
10:49 3.3 °C 1.7 °C 1039.8 hPa NNW 2.1 km/h 4.8 km/h 89% 0 mm 178 W/m2
10:54 3.5 °C 1.9 °C 1039.8 hPa NNW 0.3 km/h 3.2 km/h 89% 0 mm 186 W/m2
10:59 3.6 °C 1.7 °C 1039.8 hPa NNW 2.1 km/h 6.4 km/h 88% 0 mm 193 W/m2
11:04 3.6 °C 1.7 °C 1039.8 hPa NNW 0.3 km/h 4.8 km/h 88% 0 mm 221 W/m2
11:09 3.8 °C 2 °C 1039.8 hPa Calm     88% 0 mm 248 W/m2
11:14 4.2 °C 2.4 °C 1039.8 hPa Calm   1.6 km/h 88% 0 mm 264 W/m2
11:19 4.4 °C 2.5 °C 1039.8 hPa NNW 1 km/h 4.8 km/h 87.4% 0 mm 292 W/m2
11:24 4.6 °C 2.6 °C 1039.5 hPa NNW 0.8 km/h 4.8 km/h 87% 0 mm 287 W/m2
11:29 4.7 °C 2.6 °C 1039.5 hPa NNW 2.4 km/h 6.4 km/h 86% 0 mm 227 W/m2
11:34 4.6 °C 2.4 °C 1039.5 hPa NNW 3.5 km/h 8 km/h 86% 0 mm 193 W/m2
11:39 4.4 °C 2.3 °C 1039.5 hPa NNW 3.1 km/h 6.4 km/h 86% 0 mm 178 W/m2
11:44 4.5 °C 2.4 °C 1039.5 hPa NNW 5 km/h 8 km/h 86% 0 mm 183 W/m2
11:49 4.5 °C 2.4 °C 1039.5 hPa NNW 6.1 km/h 9.7 km/h 86% 0 mm 213 W/m2
11:54 4.6 °C 2.5 °C 1039.5 hPa NNW 5.5 km/h 9.7 km/h 86% 0 mm 209 W/m2
11:59 4.7 °C 2.6 °C 1039.5 hPa NNW 6 km/h 11.3 km/h 86% 0 mm 193 W/m2
12:04 4.8 °C 2.7 °C 1039.5 hPa NNW 3.9 km/h 8 km/h 86% 0 mm 149 W/m2
12:09 4.9 °C 2.8 °C 1039.5 hPa NNW 4.2 km/h 9.7 km/h 86% 0 mm 141 W/m2
12:14 4.7 °C 2.7 °C 1039.5 hPa NNW 7.2 km/h 11.3 km/h 86% 0 mm 128 W/m2
12:19 4.7 °C 2.6 °C 1039.5 hPa NNW 3.9 km/h 9.7 km/h 86% 0 mm 130 W/m2
12:24 4.7 °C 2.6 °C 1039.5 hPa NNW 5 km/h 11.3 km/h 86% 0 mm 121 W/m2
12:29 4.7 °C 2.6 °C 1039.5 hPa NNW 7.7 km/h 11.3 km/h 86% 0 mm 127 W/m2
12:34 4.7 °C 2.6 °C 1039.5 hPa NNW 6 km/h 11.3 km/h 86% 0 mm 134 W/m2
12:39 4.8 °C 2.7 °C 1039.2 hPa NNW 5.3 km/h 11.3 km/h 86% 0 mm 137 W/m2
12:44 4.8 °C 2.7 °C 1039.5 hPa NNW 5.6 km/h 11.3 km/h 86% 0 mm 128 W/m2
12:49 4.9 °C 2.8 °C 1039.5 hPa NNW 4.7 km/h 11.3 km/h 86% 0 mm 116 W/m2
12:54 4.9 °C 2.8 °C 1039.5 hPa NNW 2.7 km/h 9.7 km/h 86% 0 mm 120 W/m2
12:59 5.1 °C 2.9 °C 1039.2 hPa NNW 2.3 km/h 6.4 km/h 86% 0 mm 118 W/m2
13:04 5.1 °C 2.9 °C 1039.2 hPa NNW 2.7 km/h 6.4 km/h 85.6% 0 mm 111 W/m2
13:09 5.2 °C 2.9 °C 1039.5 hPa NNW 4 km/h 8 km/h 85% 0 mm 98 W/m2
13:14 5.2 °C 2.9 °C 1039.5 hPa NNW 4.5 km/h 8 km/h 85% 0 mm 104 W/m2
13:19 5.2 °C 2.9 °C 1039.2 hPa NNW 6 km/h 12.9 km/h 85% 0 mm 107 W/m2
13:24 5.2 °C 2.9 °C 1039.2 hPa NNW 5.1 km/h 12.9 km/h 85% 0 mm 107 W/m2
13:29 5.2 °C 2.7 °C 1039.2 hPa NNW 4 km/h 9.7 km/h 84% 0 mm 95 W/m2
13:34 5.3 °C 2.8 °C 1038.8 hPa NW 6.6 km/h 14.5 km/h 84% 0 mm 95 W/m2
13:39 5.2 °C 2.7 °C 1038.8 hPa WNW 7.9 km/h 12.9 km/h 83.8% 0 mm 93 W/m2
13:44 5.1 °C 2.5 °C 1038.8 hPa WNW 3.7 km/h 14.5 km/h 83% 0 mm 84 W/m2
13:49 5.2 °C 2.5 °C 1038.8 hPa WNW 3.9 km/h 9.7 km/h 83% 0 mm 97 W/m2
13:54 5.3 °C 2.6 °C 1038.8 hPa WNW 5.1 km/h 8 km/h 83% 0 mm 97 W/m2
13:59 5.3 °C 2.6 °C 1038.8 hPa WNW 3.9 km/h 8 km/h 83% 0 mm 91 W/m2
14:04 5.3 °C 2.7 °C 1038.8 hPa WNW 4.3 km/h 6.4 km/h 83% 0 mm 88 W/m2
14:09 5.4 °C 2.6 °C 1038.8 hPa WNW 1.9 km/h 4.8 km/h 82.2% 0 mm 81 W/m2
14:14 5.4 °C 2.6 °C 1038.8 hPa WNW 5.1 km/h 6.4 km/h 82% 0 mm 88 W/m2
14:19 5.4 °C 2.6 °C 1038.8 hPa WNW 2.9 km/h 6.4 km/h 82% 0 mm 90 W/m2
14:24 5.4 °C 2.7 °C 1038.8 hPa WNW 2.4 km/h 8 km/h 82% 0 mm 84 W/m2
14:29 5.4 °C 2.7 °C 1038.8 hPa WNW 5.3 km/h 9.7 km/h 82% 0 mm 74 W/m2
14:34 5.4 °C 2.6 °C 1038.8 hPa WNW 1.3 km/h 8 km/h 82% 0 mm 70 W/m2
14:39 5.5 °C 2.7 °C 1038.8 hPa Calm     82% 0 mm 63 W/m2
14:44 5.6 °C 2.8 °C 1038.8 hPa WNW 1.6 km/h 4.8 km/h 82% 0 mm 62 W/m2
14:49 5.6 °C 2.8 °C 1038.5 hPa WNW 3.7 km/h 6.4 km/h 82% 0 mm 56 W/m2
14:54 5.6 °C 2.8 °C 1038.5 hPa WNW 4.2 km/h 6.4 km/h 82% 0 mm 56 W/m2
14:59 5.6 °C 2.8 °C 1038.5 hPa WNW 4.5 km/h 6.4 km/h 82% 0 mm 51 W/m2
15:04 5.6 °C 2.8 °C 1038.5 hPa WNW 5.1 km/h 8 km/h 82% 0 mm 47 W/m2
15:09 5.6 °C 2.7 °C 1038.5 hPa WNW 6 km/h 9.7 km/h 82% 0 mm 47 W/m2
15:14 5.5 °C 2.7 °C 1038.5 hPa WNW 4 km/h 6.4 km/h 82% 0 mm 44 W/m2
15:19 5.5 °C 2.7 °C 1038.5 hPa WNW 1.3 km/h 4.8 km/h 82% 0 mm 40 W/m2
15:24 5.6 °C 2.8 °C 1038.5 hPa WNW 2.3 km/h 4.8 km/h 82% 0 mm 39 W/m2
15:29 5.6 °C 2.8 °C 1038.5 hPa WNW 2.1 km/h 6.4 km/h 82% 0 mm 35 W/m2
15:34 5.6 °C 2.8 °C 1038.5 hPa WNW 4 km/h 8 km/h 82% 0 mm 37 W/m2
15:39 5.6 °C 2.8 °C 1038.5 hPa WNW 3.5 km/h 11.3 km/h 82% 0 mm 33 W/m2
15:44 5.5 °C 2.7 °C 1038.5 hPa WNW 2.1 km/h 6.4 km/h 82% 0 mm 30 W/m2
15:49 5.5 °C 2.7 °C 1038.5 hPa WNW 2.1 km/h 4.8 km/h 82% 0 mm 30 W/m2
15:53 5.4 °C 2.7 °C 1038.5 hPa WNW 3.2 km/h 6.4 km/h 82% 0 mm 26 W/m2
15:59 5.4 °C 2.6 °C 1038.1 hPa WNW 1.3 km/h 4.8 km/h 82% 0 mm 25 W/m2
16:04 5.4 °C 2.7 °C 1038.5 hPa WNW 2.9 km/h 4.8 km/h 82% 0 mm 21 W/m2
16:09 5.4 °C 2.6 °C 1038.5 hPa WNW 2.6 km/h 4.8 km/h 82% 0 mm 18 W/m2
16:14 5.4 °C 2.6 °C 1038.5 hPa WNW 0.3 km/h 4.8 km/h 82% 0 mm 16 W/m2
16:19 5.4 °C 2.6 °C 1038.5 hPa Calm     82% 0 mm 14 W/m2
16:24 5.4 °C 2.6 °C 1038.5 hPa WNW 2.3 km/h 4.8 km/h 82% 0 mm 11 W/m2
16:29 5.3 °C 2.6 °C 1038.5 hPa WNW 1.4 km/h 4.8 km/h 82.2% 0 mm 9 W/m2
16:34 5.3 °C 2.6 °C 1038.5 hPa WNW 4 km/h 6.4 km/h 83% 0 mm 7 W/m2
16:39 5.3 °C 2.6 °C 1038.5 hPa WNW 1.9 km/h 6.4 km/h 83% 0 mm 0 W/m2
16:44 5.3 °C 2.6 °C 1038.5 hPa Calm   3.2 km/h 83% 0 mm 0 W/m2
16:49 5.3 °C 2.6 °C 1038.5 hPa WNW 0.6 km/h 3.2 km/h 83% 0 mm 0 W/m2
16:54 5.3 °C 2.6 °C 1038.5 hPa WNW 0.3 km/h 3.2 km/h 83% 0 mm 0 W/m2
16:59 5.3 °C 2.6 °C 1038.5 hPa Calm   1.6 km/h 83% 0 mm 0 W/m2
17:04 5.3 °C 2.6 °C 1038.5 hPa WNW 2.3 km/h 6.4 km/h 83% 0 mm 0 W/m2
17:09 5.3 °C 2.6 °C 1038.5 hPa WNW 3.9 km/h 8 km/h 83% 0 mm 0 W/m2
17:14 5.3 °C 2.6 °C 1038.5 hPa WNW 3.9 km/h 6.4 km/h 83% 0 mm 0 W/m2
17:19 5.3 °C 2.6 °C 1038.1 hPa WNW 1.6 km/h 6.4 km/h 83% 0 mm 0 W/m2
17:24 5.3 °C 2.6 °C 1038.1 hPa WNW 1.4 km/h 4.8 km/h 83% 0 mm 0 W/m2
17:29 5.3 °C 2.6 °C 1038.5 hPa Calm   3.2 km/h 83% 0 mm 0 W/m2
17:34 5.3 °C 2.6 °C 1038.5 hPa Calm   3.2 km/h 83% 0 mm 0 W/m2
17:39 5.3 °C 2.6 °C 1038.5 hPa WNW 1.3 km/h 4.8 km/h 83% 0 mm 0 W/m2
17:44 5.3 °C 2.6 °C 1038.5 hPa WNW 0.6 km/h 4.8 km/h 83% 0 mm 0 W/m2
17:49 5.2 °C 2.6 °C 1038.5 hPa Calm     83% 0 mm 0 W/m2
17:54 5.2 °C 2.5 °C 1038.5 hPa Calm     83% 0 mm 0 W/m2
17:59 5.2 °C 2.5 °C 1038.5 hPa Calm     83% 0 mm 0 W/m2
18:04 5.2 °C 2.5 °C 1038.5 hPa Calm     83% 0 mm 0 W/m2
18:09 5.2 °C 2.7 °C 1038.5 hPa Calm     84% 0 mm 0 W/m2
18:14 5.2 °C 2.7 °C 1038.5 hPa Calm     84% 0 mm 0 W/m2
18:19 5.2 °C 2.7 °C 1038.5 hPa Calm     84% 0 mm 0 W/m2
18:24 5.1 °C 2.6 °C 1038.5 hPa Calm     84% 0 mm 0 W/m2
18:29 5.1 °C 2.6 °C 1038.5 hPa Calm     84% 0 mm 0 W/m2
18:34 5.1 °C 2.6 °C 1038.5 hPa Calm     84% 0 mm 0 W/m2
18:39 5.1 °C 2.6 °C 1038.5 hPa WNW 0.3 km/h 3.2 km/h 84% 0 mm 0 W/m2
18:44 5.1 °C 2.6 °C 1038.5 hPa WNW 0.3 km/h 1.6 km/h 84% 0 mm 0 W/m2
18:49 5.1 °C 2.6 °C 1038.5 hPa Calm   1.6 km/h 84% 0 mm 0 W/m2
18:54 5.1 °C 2.6 °C 1038.5 hPa WNW 1.3 km/h 3.2 km/h 84% 0 mm 0 W/m2
18:59 5 °C 2.5 °C 1038.5 hPa Calm   1.6 km/h 84% 0 mm 0 W/m2
19:04 5 °C 2.5 °C 1038.5 hPa Calm     84% 0 mm 0 W/m2
19:09 5 °C 2.5 °C 1038.5 hPa Calm     84% 0 mm 0 W/m2
19:14 4.9 °C 2.4 °C 1038.5 hPa Calm     84% 0 mm 0 W/m2
19:19 5 °C 2.5 °C 1038.5 hPa Calm   1.6 km/h 84% 0 mm 0 W/m2
19:24 4.9 °C 2.4 °C 1038.5 hPa Calm     84% 0 mm 0 W/m2
19:29 4.9 °C 2.6 °C 1038.5 hPa Calm     84.8% 0 mm 0 W/m2
19:34 4.8 °C 2.5 °C 1038.5 hPa Calm     84.8% 0 mm 0 W/m2
19:39 4.8 °C 2.5 °C 1038.5 hPa Calm     85% 0 mm 0 W/m2
19:44 4.7 °C 2.4 °C 1038.1 hPa WNW 0.8 km/h 3.2 km/h 85% 0 mm 0 W/m2
19:49 4.7 °C 2.3 °C 1038.1 hPa Calm   3.2 km/h 85% 0 mm 0 W/m2
19:54 4.7 °C 2.3 °C 1038.1 hPa WNW 1.9 km/h 4.8 km/h 85% 0 mm 0 W/m2
19:59 4.6 °C 2.3 °C 1038.1 hPa WNW 1.8 km/h 3.2 km/h 85.2% 0 mm 0 W/m2
20:04 4.5 °C 2.4 °C 1038.1 hPa WNW 0.8 km/h 3.2 km/h 86% 0 mm 0 W/m2
20:09 4.4 °C 2.3 °C 1038.1 hPa WNW 0.6 km/h 3.2 km/h 86% 0 mm 0 W/m2
20:14 4.4 °C 2.3 °C 1038.1 hPa Calm     86% 0 mm 0 W/m2
20:19 4.4 °C 2.3 °C 1038.1 hPa WNW 1.1 km/h 3.2 km/h 86% 0 mm 0 W/m2
20:24 4.4 °C 2.3 °C 1038.1 hPa WNW 0.3 km/h 3.2 km/h 86% 0 mm 0 W/m2
20:29 4.5 °C 2.4 °C 1038.1 hPa Calm     86% 0 mm 0 W/m2
20:34 4.5 °C 2.4 °C 1038.1 hPa Calm   3.2 km/h 86% 0 mm 0 W/m2
20:39 4.4 °C 2.3 °C 1038.1 hPa Calm     86% 0 mm 0 W/m2
20:44 4.4 °C 2.3 °C 1038.1 hPa Calm     86% 0 mm 0 W/m2
20:49 4.4 °C 2.3 °C 1038.1 hPa Calm     86% 0 mm 0 W/m2
20:54 4.4 °C 2.3 °C 1038.5 hPa Calm     86% 0 mm 0 W/m2
20:59 4.5 °C 2.4 °C 1038.1 hPa Calm     86.3% 0 mm 0 W/m2
21:04 4.4 °C 2.3 °C 1038.1 hPa Calm     86.4% 0 mm 0 W/m2
21:09 4.4 °C 2.4 °C 1038.1 hPa Calm     87% 0 mm 0 W/m2
21:14 4.4 °C 2.4 °C 1038.1 hPa WNW 1 km/h 3.2 km/h 87% 0 mm 0 W/m2
21:19 4.4 °C 2.4 °C 1038.1 hPa Calm   3.2 km/h 87% 0 mm 0 W/m2
21:24 4.4 °C 2.4 °C 1038.1 hPa WNW 1.3 km/h 3.2 km/h 87% 0 mm 0 W/m2
21:29 4.4 °C 2.4 °C 1038.1 hPa Calm   1.6 km/h 87% 0 mm 0 W/m2
21:34 4.3 °C 2.4 °C 1038.1 hPa Calm     87% 0 mm 0 W/m2
21:39 4.4 °C 2.4 °C 1038.1 hPa Calm     87% 0 mm 0 W/m2
21:44 4.4 °C 2.4 °C 1038.1 hPa Calm     87% 0 mm 0 W/m2
21:49 4.4 °C 2.4 °C 1038.1 hPa Calm     87% 0 mm 0 W/m2
21:54 4.4 °C 2.4 °C 1038.1 hPa Calm     87% 0 mm 0 W/m2
21:59 4.3 °C 2.3 °C 1038.1 hPa Calm     87% 0 mm 0 W/m2
22:04 4.2 °C 2.2 °C 1038.1 hPa Calm     87% 0 mm 0 W/m2
22:09 4.3 °C 2.3 °C 1038.1 hPa Calm     87% 0 mm 0 W/m2
22:14 4.3 °C 2.3 °C 1038.1 hPa WNW 2.4 km/h 4.8 km/h 87% 0 mm 0 W/m2
22:19 4.2 °C 2.2 °C 1038.1 hPa WNW 0.3 km/h 3.2 km/h 87% 0 mm 0 W/m2
22:24 4.2 °C 2.3 °C 1038.1 hPa Calm     87.2% 0 mm 0 W/m2
22:29 4.3 °C 2.4 °C 1038.1 hPa Calm     87.4% 0 mm 0 W/m2
22:34 4.3 °C 2.3 °C 1038.1 hPa Calm     87% 0 mm 0 W/m2
22:39 4.3 °C 2.3 °C 1038.1 hPa Calm     87% 0 mm 0 W/m2
22:44 4.3 °C 2.3 °C 1038.1 hPa Calm     87% 0 mm 0 W/m2
22:49 4.4 °C 2.4 °C 1038.1 hPa Calm     87.2% 0 mm 0 W/m2
22:54 4.3 °C 2.4 °C 1038.1 hPa WNW 0.6 km/h 4.8 km/h 87.6% 0 mm 0 W/m2
22:59 4.3 °C 2.6 °C 1038.1 hPa Calm     87.8% 0 mm 0 W/m2
23:04 4.3 °C 2.3 °C 1038.1 hPa Calm     87% 0 mm 0 W/m2
23:09 4.3 °C 2.4 °C 1038.1 hPa Calm     87.4% 0 mm 0 W/m2
23:14 4.3 °C 2.3 °C 1038.1 hPa Calm     87.2% 0 mm 0 W/m2
23:19 4.3 °C 2.6 °C 1038.1 hPa Calm     88% 0 mm 0 W/m2
23:24 4.3 °C 2.3 °C 1038.1 hPa Calm   1.6 km/h 87% 0 mm 0 W/m2
23:29 4.3 °C 2.5 °C 1038.1 hPa Calm     88% 0 mm 0 W/m2
23:34 4.3 °C 2.5 °C 1038.1 hPa Calm     88% 0 mm 0 W/m2
23:39 4.3 °C 2.6 °C 1038.1 hPa WNW 0.6 km/h 3.2 km/h 88% 0 mm 0 W/m2
23:44 4.3 °C 2.5 °C 1038.1 hPa Calm   3.2 km/h 88% 0 mm 0 W/m2
23:49 4.3 °C 2.5 °C 1038.1 hPa Calm     88% 0 mm 0 W/m2
23:54 4.4 °C 2.6 °C 1038.1 hPa Calm     88% 0 mm 0 W/m2
23:59 4.4 °C 2.6 °C 1038.1 hPa Calm     88% 0 mm 0 W/m2
Bath Spa Weather
Compliments of Weather Underground - 2 mb